MAPA DE AEROPUERTO

INFORMACIÓN METAR y TAF

METAR FOR LEPA
ADDS - METARS form results

(1944 UTC 29 October 2020)
Data provider http://aviationweather.gov/metar/data/
 
METAR text: LEPA 291930Z 05003KT 020V080 9999 FEW035 15/13 Q1026 NOSIG
Conditions at: LEPA (PALMA DE MALLORC, ES) observed 1930 UTC 29 October 2020
Temperature: 15.0°C (59°F)
Dewpoint: 13.0°C (55°F) [RH = 88%]
Pressure (altimeter): 30.30 inches Hg (1026.0 mb)
Winds: from the NE (50 degrees) at 3 MPH (3 knots; 1.5 m/s)
Visibility: 6 or more miles (10+ km)
Ceiling: at least 12,000 feet AGL
Clouds: few clouds at 3500 feet AGL
Weather: no significant weather observed at this time

METAR text: LEPA 291900Z 17003KT 9999 FEW035 16/14 Q1026 NOSIG
Conditions at: LEPA (PALMA DE MALLORC, ES) observed 1900 UTC 29 October 2020
Temperature: 16.0°C (61°F)
Dewpoint: 14.0°C (57°F) [RH = 88%]
Pressure (altimeter): 30.30 inches Hg (1026.0 mb)
Winds: from the S (170 degrees) at 3 MPH (3 knots; 1.5 m/s)
Visibility: 6 or more miles (10+ km)
Ceiling: at least 12,000 feet AGL
Clouds: few clouds at 3500 feet AGL
Weather: no significant weather observed at this time

Forecast for: LEPA (PALMA DE MALLORC, ES)
Text: TAF LEPA 291700Z 2918/3018 VRB04KT 9999 FEW010 TX24/3012Z TN12/3005Z
Forecast period: 1800 UTC 29 October 2020 to 1000 UTC 30 October 2020
Forecast type: FROM: standard forecast or significant change
Winds: variable direction winds at 5 MPH (4 knots; 2.1 m/s)
Visibility: 6 or more miles (10+ km)
Ceiling: at least 12,000 feet AGL
Clouds: few clouds at 1000 feet AGL
Weather: no significant weather forecast for this period
Text: PROB30
Forecast period: 2000 UTC 29 October 2020 to 0600 UTC 30 October 2020
Forecast type: TEMPORARY: The following changes expected for less than half the time period
Visibility: 1.86 miles (2.99 km)
Ceiling: 1000 feet AGL
Clouds: broken clouds at 1000 feet AGL
Weather: BR  (mist)
Text: TEMPO 2920/3006 3000 BR BKN010
Forecast period: 1000 to 1500 UTC 30 October 2020
Forecast type: BECOMING: Conditions expected to become as follows by 1200 UTC 30 October 2020
Winds: from the SSW (210 degrees) at 12 MPH (10 knots; 5.1 m/s)
Visibility: 6 or more miles (10+ km)
Ceiling: at least 12,000 feet AGL
Clouds: few clouds at 1000 feet AGL
Weather: no significant weather forecast for this period
Text: BECMG 3010/3012 21010KT
Forecast period: 1500 to 1800 UTC 30 October 2020
Forecast type: BECOMING: Conditions expected to become as follows by 1700 UTC 30 October 2020
Winds: variable direction winds at 5 MPH (4 knots; 2.1 m/s)
Visibility: 6 or more miles (10+ km)
Ceiling: at least 12,000 feet AGL
Clouds: few clouds at 1000 feet AGL
Weather: no significant weather forecast for this period